createdAt,value
2018-08-22T00:00:21.841Z,992.01
2018-08-22T00:01:21.772Z,991.99
2018-08-22T00:02:21.702Z,991.98
2018-08-22T00:03:21.632Z,991.99
2018-08-22T00:04:21.562Z,991.94
2018-08-22T00:05:21.492Z,991.97
2018-08-22T00:06:21.424Z,991.99
2018-08-22T00:07:21.356Z,991.98
2018-08-22T00:08:21.285Z,991.98
2018-08-22T00:09:21.215Z,991.99
2018-08-22T00:10:21.146Z,991.96
2018-08-22T00:11:21.076Z,991.96
2018-08-22T00:12:21.010Z,991.98
2018-08-22T00:13:20.936Z,991.99
2018-08-22T00:14:20.868Z,991.97
2018-08-22T00:15:20.902Z,992.01
2018-08-22T00:16:20.728Z,991.98
2018-08-22T00:17:20.658Z,992.01
2018-08-22T00:18:20.589Z,992.00
2018-08-22T00:19:20.519Z,991.99
2018-08-22T00:20:20.450Z,991.97
2018-08-22T00:21:20.378Z,991.99
2018-08-22T00:22:20.346Z,991.99
2018-08-22T00:23:20.241Z,992.00
2018-08-22T00:24:20.175Z,992.01
2018-08-22T00:25:20.124Z,992.01
2018-08-22T00:26:20.032Z,991.99
2018-08-22T00:27:19.963Z,991.99
2018-08-22T00:28:19.893Z,991.98
2018-08-22T00:29:19.956Z,991.98
2018-08-22T00:30:19.954Z,991.98
2018-08-22T00:31:19.685Z,991.94
2018-08-22T00:32:19.616Z,991.94
2018-08-22T00:33:19.545Z,991.96
2018-08-22T00:34:19.477Z,991.92
2018-08-22T00:35:19.407Z,991.93
2018-08-22T00:36:19.337Z,991.90
2018-08-22T00:37:19.268Z,991.91
2018-08-22T00:38:19.199Z,991.91
2018-08-22T00:39:19.170Z,991.87
2018-08-22T00:40:19.060Z,991.92
2018-08-22T00:41:18.990Z,991.93
2018-08-22T00:42:18.921Z,991.84
2018-08-22T00:43:18.852Z,991.85
2018-08-22T00:44:18.782Z,991.86
2018-08-22T00:45:18.712Z,991.86
2018-08-22T00:46:18.643Z,991.85
2018-08-22T00:47:18.572Z,991.84
2018-08-22T00:48:18.504Z,991.85
2018-08-22T00:49:18.434Z,991.83
2018-08-22T00:50:18.366Z,991.80
2018-08-22T00:51:18.296Z,991.79
2018-08-22T00:52:18.227Z,991.78
2018-08-22T00:53:18.161Z,991.80
2018-08-22T00:54:18.091Z,991.80
2018-08-22T00:55:18.020Z,991.82
2018-08-22T00:56:17.948Z,991.81
2018-08-22T00:57:17.878Z,991.77
2018-08-22T00:58:17.810Z,991.82
2018-08-22T00:59:17.739Z,991.78
2018-08-22T01:00:17.671Z,991.76
2018-08-22T01:01:17.601Z,991.74
2018-08-22T01:02:17.531Z,991.75
2018-08-22T01:03:17.465Z,991.73
2018-08-22T01:04:17.394Z,991.70
2018-08-22T01:05:17.323Z,991.71
2018-08-22T01:06:17.254Z,991.69
2018-08-22T01:07:17.184Z,991.74
2018-08-22T01:08:17.115Z,991.70
2018-08-22T01:09:17.046Z,991.70
2018-08-22T01:10:16.975Z,991.69
2018-08-22T01:11:16.906Z,991.68
2018-08-22T01:12:16.836Z,991.70
2018-08-22T01:13:16.769Z,991.67
2018-08-22T01:14:16.695Z,991.67
2018-08-22T01:15:16.628Z,991.69
2018-08-22T01:16:16.560Z,991.65
2018-08-22T01:17:16.489Z,991.68
2018-08-22T01:18:16.419Z,991.66
2018-08-22T01:19:16.351Z,991.64
2018-08-22T01:20:16.281Z,991.61
2018-08-22T01:21:16.211Z,991.59
2018-08-22T01:22:16.140Z,991.60
2018-08-22T01:23:16.070Z,991.59
2018-08-22T01:24:16.001Z,991.58
2018-08-22T01:25:15.931Z,991.60
2018-08-22T01:26:15.861Z,991.60
2018-08-22T01:27:15.792Z,991.63
2018-08-22T01:28:15.722Z,991.58
2018-08-22T01:29:15.651Z,991.59
2018-08-22T01:30:15.584Z,991.61
2018-08-22T01:31:15.513Z,991.57
2018-08-22T01:32:15.444Z,991.56
2018-08-22T01:33:15.373Z,991.62
2018-08-22T01:34:15.303Z,991.58
2018-08-22T01:35:15.233Z,991.61
2018-08-22T01:36:15.164Z,991.60
2018-08-22T01:37:15.093Z,991.64
2018-08-22T01:38:15.025Z,991.59
2018-08-22T01:39:14.954Z,991.56
2018-08-22T01:40:14.884Z,991.58
2018-08-22T01:41:14.814Z,991.62
2018-08-22T01:42:14.744Z,991.59
2018-08-22T01:43:14.674Z,991.60
2018-08-22T01:44:14.605Z,991.61
2018-08-22T01:45:14.533Z,991.62
2018-08-22T01:46:14.463Z,991.59
2018-08-22T01:47:14.393Z,991.61
2018-08-22T01:48:14.324Z,991.64
2018-08-22T01:49:14.253Z,991.61
2018-08-22T01:50:14.185Z,991.59
2018-08-22T01:51:14.113Z,991.61
2018-08-22T01:52:14.043Z,991.59
2018-08-22T01:53:13.972Z,991.57
2018-08-22T01:54:13.905Z,991.55
2018-08-22T01:55:13.832Z,991.57
2018-08-22T01:56:13.763Z,991.55
2018-08-22T01:57:13.694Z,991.55
2018-08-22T01:58:13.622Z,991.54
2018-08-22T01:59:13.551Z,991.55
2018-08-22T02:00:13.482Z,991.61
2018-08-22T02:01:13.412Z,991.60
2018-08-22T02:02:13.342Z,991.55
2018-08-22T02:03:13.271Z,991.60
2018-08-22T02:04:13.201Z,991.58
2018-08-22T02:05:13.130Z,991.58
2018-08-22T02:06:13.060Z,991.55
2018-08-22T02:07:12.990Z,991.57
2018-08-22T02:08:12.920Z,991.55
2018-08-22T02:09:12.855Z,991.55
2018-08-22T02:10:12.780Z,991.57
2018-08-22T02:11:12.708Z,991.57
2018-08-22T02:12:12.637Z,991.58
2018-08-22T02:13:12.566Z,991.58
2018-08-22T02:14:12.496Z,991.57
2018-08-22T02:15:12.428Z,991.55
2018-08-22T02:16:12.356Z,991.55
2018-08-22T02:17:12.284Z,991.56
2018-08-22T02:18:12.216Z,991.54
2018-08-22T02:19:12.143Z,991.53
2018-08-22T02:20:12.073Z,991.53
2018-08-22T02:21:12.001Z,991.54
2018-08-22T02:22:11.931Z,991.51
2018-08-22T02:23:11.861Z,991.53
2018-08-22T02:24:11.789Z,991.55
2018-08-22T02:25:11.765Z,991.52
2018-08-22T02:26:11.648Z,991.54
2018-08-22T02:27:11.577Z,991.52
2018-08-22T02:28:11.506Z,991.52
2018-08-22T02:29:11.436Z,991.50
2018-08-22T02:30:11.364Z,991.53
2018-08-22T02:31:11.296Z,991.53
2018-08-22T02:32:11.223Z,991.50
2018-08-22T02:33:11.152Z,991.49
2018-08-22T02:34:11.080Z,991.51
2018-08-22T02:35:11.010Z,991.49
2018-08-22T02:36:10.939Z,991.47
2018-08-22T02:37:10.868Z,991.47
2018-08-22T02:38:10.799Z,991.49
2018-08-22T02:39:10.726Z,991.51
2018-08-22T02:40:10.655Z,991.56
2018-08-22T02:41:10.583Z,991.49
2018-08-22T02:42:10.513Z,991.56
2018-08-22T02:43:10.441Z,991.56
2018-08-22T02:44:10.372Z,991.57
2018-08-22T02:45:10.297Z,991.54
2018-08-22T02:46:10.227Z,991.54
2018-08-22T02:47:10.157Z,991.50
2018-08-22T02:48:10.085Z,991.54
2018-08-22T02:49:10.014Z,991.49
2018-08-22T02:50:09.943Z,991.50
2018-08-22T02:51:09.873Z,991.47
2018-08-22T02:52:09.802Z,991.50
2018-08-22T02:53:09.730Z,991.49
2018-08-22T02:54:09.659Z,991.49
2018-08-22T02:55:09.589Z,991.51
2018-08-22T02:56:09.519Z,991.52
2018-08-22T02:57:09.446Z,991.52
2018-08-22T02:58:09.377Z,991.49
2018-08-22T02:59:09.306Z,991.52
2018-08-22T03:00:09.235Z,991.51
2018-08-22T03:01:09.163Z,991.51
2018-08-22T03:02:09.092Z,991.52
2018-08-22T03:03:09.030Z,991.52
2018-08-22T03:04:08.951Z,991.50
2018-08-22T03:05:08.880Z,991.52
2018-08-22T03:06:08.810Z,991.49
2018-08-22T03:07:08.838Z,991.52
2018-08-22T03:08:08.667Z,991.53
2018-08-22T03:09:08.595Z,991.56
2018-08-22T03:10:08.525Z,991.54
2018-08-22T03:11:08.453Z,991.55
2018-08-22T03:12:08.382Z,991.55
2018-08-22T03:13:08.310Z,991.53
2018-08-22T03:14:08.239Z,991.56
2018-08-22T03:15:08.169Z,991.55
2018-08-22T03:16:08.097Z,991.49
2018-08-22T03:17:08.027Z,991.50
2018-08-22T03:18:07.955Z,991.51
2018-08-22T03:19:07.887Z,991.57
2018-08-22T03:20:07.815Z,991.53
2018-08-22T03:21:07.743Z,991.57
2018-08-22T03:22:07.670Z,991.56
2018-08-22T03:23:07.601Z,991.60
2018-08-22T03:24:07.531Z,991.54
2018-08-22T03:25:07.457Z,991.54
2018-08-22T03:26:07.423Z,991.53
2018-08-22T03:27:07.316Z,991.54
2018-08-22T03:28:07.247Z,991.56
2018-08-22T03:29:07.173Z,991.57
2018-08-22T03:30:07.103Z,991.54
2018-08-22T03:31:07.031Z,991.52
2018-08-22T03:32:06.960Z,991.53
2018-08-22T03:33:06.888Z,991.52
2018-08-22T03:34:06.817Z,991.50
2018-08-22T03:35:06.747Z,991.54
2018-08-22T03:36:06.675Z,991.49
2018-08-22T03:37:06.602Z,991.52
2018-08-22T03:38:06.632Z,991.51
2018-08-22T03:39:06.460Z,991.54
2018-08-22T03:40:06.390Z,991.52
2018-08-22T03:41:06.318Z,991.52
2018-08-22T03:42:06.248Z,991.53
2018-08-22T03:43:06.176Z,991.51
2018-08-22T03:44:06.105Z,991.50
2018-08-22T03:45:06.032Z,991.50
2018-08-22T03:46:05.962Z,991.49
2018-08-22T03:47:05.890Z,991.49
2018-08-22T03:48:05.820Z,991.43
2018-08-22T03:49:05.747Z,991.46
2018-08-22T03:50:05.675Z,991.46
2018-08-22T03:51:05.604Z,991.46
2018-08-22T03:52:05.534Z,991.46
2018-08-22T03:53:05.460Z,991.48
2018-08-22T03:54:05.388Z,991.47
2018-08-22T03:55:05.318Z,991.46
2018-08-22T03:56:05.247Z,991.46
2018-08-22T03:57:05.174Z,991.44
2018-08-22T03:58:05.104Z,991.41
2018-08-22T03:59:05.032Z,991.41
2018-08-22T04:00:04.961Z,991.44
2018-08-22T04:01:04.889Z,991.41
2018-08-22T04:02:04.820Z,991.48
2018-08-22T04:03:04.746Z,991.45
2018-08-22T04:04:04.675Z,991.42
2018-08-22T04:05:04.604Z,991.45
2018-08-22T04:06:04.531Z,991.42
2018-08-22T04:07:04.459Z,991.44
2018-08-22T04:08:04.389Z,991.45
2018-08-22T04:09:04.314Z,991.45
2018-08-22T04:10:04.244Z,991.44
2018-08-22T04:11:04.174Z,991.45
2018-08-22T04:12:04.101Z,991.45
2018-08-22T04:13:04.029Z,991.41
2018-08-22T04:14:03.957Z,991.44
2018-08-22T04:15:03.886Z,991.41
2018-08-22T04:16:03.817Z,991.43
2018-08-22T04:17:03.742Z,991.46
2018-08-22T04:18:03.673Z,991.44
2018-08-22T04:19:03.599Z,991.47
2018-08-22T04:20:03.529Z,991.43
2018-08-22T04:21:03.455Z,991.42
2018-08-22T04:22:03.385Z,991.43
2018-08-22T04:23:03.313Z,991.46
2018-08-22T04:24:03.244Z,991.46
2018-08-22T04:25:03.168Z,991.46
2018-08-22T04:26:03.098Z,991.44
2018-08-22T04:27:03.026Z,991.43
2018-08-22T04:28:02.955Z,991.43
2018-08-22T04:29:02.882Z,991.45
2018-08-22T04:30:02.814Z,991.44
2018-08-22T04:31:02.828Z,991.45
2018-08-22T04:32:02.667Z,991.47
2018-08-22T04:33:02.596Z,991.46
2018-08-22T04:34:02.528Z,991.46
2018-08-22T04:35:02.452Z,991.44
2018-08-22T04:36:02.383Z,991.44
2018-08-22T04:37:02.328Z,991.46
2018-08-22T04:38:02.240Z,991.44
2018-08-22T04:39:02.166Z,991.46
2018-08-22T04:40:02.095Z,991.45
2018-08-22T04:41:02.022Z,991.44
2018-08-22T04:42:01.955Z,991.44
2018-08-22T04:43:01.879Z,991.43
2018-08-22T04:44:01.809Z,991.42
2018-08-22T04:45:01.735Z,991.42
2018-08-22T04:46:01.665Z,991.45
2018-08-22T04:47:01.593Z,991.41
2018-08-22T04:48:01.523Z,991.47
2018-08-22T04:49:01.448Z,991.49
2018-08-22T04:50:01.378Z,991.46
2018-08-22T04:51:01.306Z,991.48
2018-08-22T04:52:01.236Z,991.45
2018-08-22T04:53:01.163Z,991.47
2018-08-22T04:54:01.092Z,991.48
2018-08-22T04:55:01.020Z,991.49
2018-08-22T04:56:00.948Z,991.50
2018-08-22T04:57:00.875Z,991.52
2018-08-22T04:58:00.805Z,991.53
2018-08-22T04:59:00.737Z,991.54
2018-08-22T05:00:00.662Z,991.53
2018-08-22T05:01:00.589Z,991.52
2018-08-22T05:02:00.519Z,991.51
2018-08-22T05:03:00.446Z,991.52
2018-08-22T05:04:00.376Z,991.50
2018-08-22T05:05:00.302Z,991.51
2018-08-22T05:06:00.350Z,991.54
2018-08-22T05:07:00.160Z,991.51
2018-08-22T05:08:00.087Z,991.50
2018-08-22T05:09:00.017Z,991.53
2018-08-22T05:09:59.945Z,991.54
2018-08-22T05:10:59.872Z,991.54
2018-08-22T05:11:59.801Z,991.55
2018-08-22T05:12:59.729Z,991.62
2018-08-22T05:13:59.656Z,991.55
2018-08-22T05:14:59.585Z,991.57
2018-08-22T05:15:59.515Z,991.58
2018-08-22T05:16:59.442Z,991.57
2018-08-22T05:17:59.373Z,991.58
2018-08-22T05:18:59.300Z,991.56
2018-08-22T05:19:59.229Z,991.56
2018-08-22T05:20:59.157Z,991.53
2018-08-22T05:21:59.084Z,991.52
2018-08-22T05:22:59.014Z,991.48
2018-08-22T05:23:58.942Z,991.56
2018-08-22T05:24:58.873Z,991.53
2018-08-22T05:25:58.799Z,991.54
2018-08-22T05:26:58.728Z,991.55
2018-08-22T05:27:58.656Z,991.52
2018-08-22T05:28:58.583Z,991.57
2018-08-22T05:29:58.556Z,991.56
2018-08-22T05:30:58.441Z,991.58
2018-08-22T05:31:58.369Z,991.61
2018-08-22T05:32:58.298Z,991.62
2018-08-22T05:33:58.228Z,991.60
2018-08-22T05:34:58.155Z,991.58
2018-08-22T05:35:58.090Z,991.60
2018-08-22T05:36:58.012Z,991.60
2018-08-22T05:37:57.941Z,991.60
2018-08-22T05:38:57.870Z,991.59
2018-08-22T05:39:57.799Z,991.56
2018-08-22T05:40:57.726Z,991.58
2018-08-22T05:41:57.656Z,991.59
2018-08-22T05:42:57.586Z,991.54
2018-08-22T05:43:57.513Z,991.54
2018-08-22T05:44:57.442Z,991.54
2018-08-22T05:45:57.372Z,991.57
2018-08-22T05:46:57.300Z,991.59
2018-08-22T05:47:57.229Z,991.57
2018-08-22T05:48:57.157Z,991.59
2018-08-22T05:49:57.085Z,991.60
2018-08-22T05:50:57.015Z,991.60
2018-08-22T05:51:56.943Z,991.60
2018-08-22T05:52:56.873Z,991.64
2018-08-22T05:53:56.801Z,991.64
2018-08-22T05:54:56.731Z,991.64
2018-08-22T05:55:56.660Z,991.59
2018-08-22T05:56:56.587Z,991.61
2018-08-22T05:57:56.516Z,991.61
2018-08-22T05:58:56.445Z,991.61
2018-08-22T05:59:56.373Z,991.63
2018-08-22T06:00:56.304Z,991.65
2018-08-22T06:01:56.234Z,991.66
2018-08-22T06:02:56.162Z,991.68
2018-08-22T06:03:56.091Z,991.65
2018-08-22T06:04:56.020Z,991.63
2018-08-22T06:05:55.949Z,991.65
2018-08-22T06:06:55.883Z,991.63
2018-08-22T06:07:55.807Z,991.60
2018-08-22T06:08:55.736Z,991.62
2018-08-22T06:09:55.689Z,991.62
2018-08-22T06:10:55.605Z,991.60
2018-08-22T06:11:55.526Z,991.58
2018-08-22T06:12:55.454Z,991.59
2018-08-22T06:13:55.384Z,991.61
2018-08-22T06:14:55.318Z,991.57
2018-08-22T06:15:55.244Z,991.61
2018-08-22T06:16:55.172Z,991.58
2018-08-22T06:17:55.102Z,991.57
2018-08-22T06:18:55.033Z,991.59
2018-08-22T06:19:54.963Z,991.58
2018-08-22T06:20:54.890Z,991.54
2018-08-22T06:21:54.821Z,991.54
2018-08-22T06:22:54.750Z,991.55
2018-08-22T06:23:54.681Z,991.51
2018-08-22T06:24:54.610Z,991.57
2018-08-22T06:25:54.541Z,991.56
2018-08-22T06:26:54.469Z,991.56
2018-08-22T06:27:54.399Z,991.53
2018-08-22T06:28:54.341Z,991.52
2018-08-22T06:29:54.259Z,991.55
2018-08-22T06:30:54.191Z,991.51
2018-08-22T06:31:54.119Z,991.54
2018-08-22T06:32:54.081Z,991.52
2018-08-22T06:33:53.979Z,991.55
2018-08-22T06:34:53.909Z,991.58
2018-08-22T06:35:53.840Z,991.55
2018-08-22T06:36:53.771Z,991.54
2018-08-22T06:37:53.721Z,991.56
2018-08-22T06:38:53.630Z,991.57
2018-08-22T06:39:53.561Z,991.58
2018-08-22T06:40:53.490Z,991.60
2018-08-22T06:41:53.422Z,991.60
2018-08-22T06:42:53.351Z,991.57
2018-08-22T06:43:53.283Z,991.62
2018-08-22T06:44:53.212Z,991.62
2018-08-22T06:45:53.142Z,991.63
2018-08-22T06:46:53.075Z,991.62
2018-08-22T06:47:53.004Z,991.60
2018-08-22T06:48:52.933Z,991.60
2018-08-22T06:49:52.866Z,991.60
2018-08-22T06:50:52.796Z,991.60
2018-08-22T06:51:52.726Z,991.58
2018-08-22T06:52:52.655Z,991.56
2018-08-22T06:53:52.587Z,991.61
2018-08-22T06:54:52.518Z,991.59
2018-08-22T06:55:52.448Z,991.61
2018-08-22T06:56:52.380Z,991.62
2018-08-22T06:57:52.311Z,991.60
2018-08-22T06:58:52.245Z,991.60
2018-08-22T06:59:52.172Z,991.54
2018-08-22T07:00:52.105Z,991.55
2018-08-22T07:01:52.035Z,991.56
2018-08-22T07:02:51.966Z,991.55
2018-08-22T07:03:51.898Z,991.53
2018-08-22T07:04:51.829Z,991.52
2018-08-22T07:05:51.758Z,991.50
2018-08-22T07:06:51.689Z,991.52
2018-08-22T07:07:51.673Z,991.53
2018-08-22T07:08:51.551Z,991.52
2018-08-22T07:09:51.483Z,991.54
2018-08-22T07:10:51.414Z,991.51
2018-08-22T07:11:51.346Z,991.51
2018-08-22T07:12:51.278Z,991.44
2018-08-22T07:13:51.208Z,991.43
2018-08-22T07:14:51.139Z,991.44
2018-08-22T07:15:51.070Z,991.43
2018-08-22T07:16:51.000Z,991.43
2018-08-22T07:17:50.932Z,991.41
2018-08-22T07:18:50.865Z,991.43
2018-08-22T07:19:50.796Z,991.44
2018-08-22T07:20:50.785Z,991.43
2018-08-22T07:21:50.658Z,991.46
2018-08-22T07:22:50.591Z,991.47
2018-08-22T07:23:50.521Z,991.49
2018-08-22T07:24:50.451Z,991.49
2018-08-22T07:25:50.384Z,991.48
2018-08-22T07:26:50.317Z,991.49
2018-08-22T07:27:50.247Z,991.51
2018-08-22T07:28:50.182Z,991.51
2018-08-22T07:29:50.111Z,991.52
2018-08-22T07:30:50.041Z,991.50
2018-08-22T07:31:49.973Z,991.55
2018-08-22T07:32:49.904Z,991.50
2018-08-22T07:33:49.836Z,991.54
2018-08-22T07:34:49.770Z,991.49
2018-08-22T07:35:49.781Z,991.51
2018-08-22T07:36:49.635Z,991.55
2018-08-22T07:37:49.564Z,991.53
2018-08-22T07:38:49.493Z,991.56
2018-08-22T07:39:49.423Z,991.57
2018-08-22T07:40:49.357Z,991.57
2018-08-22T07:41:49.285Z,991.58
2018-08-22T07:42:49.215Z,991.61
2018-08-22T07:43:49.147Z,991.61
2018-08-22T07:44:49.081Z,991.58
2018-08-22T07:45:49.011Z,991.59
2018-08-22T07:46:48.939Z,991.60
2018-08-22T07:47:48.870Z,991.58
2018-08-22T07:48:48.801Z,991.60
2018-08-22T07:49:48.731Z,991.60
2018-08-22T07:50:48.666Z,991.60
2018-08-22T07:51:48.593Z,991.62
2018-08-22T07:52:48.521Z,991.61
2018-08-22T07:53:48.452Z,991.61
2018-08-22T07:54:48.384Z,991.63
2018-08-22T07:55:48.314Z,991.60
2018-08-22T07:56:48.243Z,991.61
2018-08-22T07:57:48.179Z,991.55
2018-08-22T07:58:48.105Z,991.58
2018-08-22T07:59:48.036Z,991.58
2018-08-22T08:00:47.969Z,991.55
2018-08-22T08:01:47.967Z,991.58
2018-08-22T08:02:47.832Z,991.55
2018-08-22T08:03:47.757Z,991.56
2018-08-22T08:04:47.688Z,991.56
2018-08-22T08:05:47.627Z,991.57
2018-08-22T08:06:47.549Z,991.55
2018-08-22T08:07:47.479Z,991.54
2018-08-22T08:08:47.416Z,991.53
2018-08-22T08:09:47.340Z,991.49
2018-08-22T08:10:47.287Z,991.47
2018-08-22T08:11:47.224Z,991.47
2018-08-22T08:12:47.132Z,991.45
2018-08-22T08:13:47.064Z,991.48
2018-08-22T08:14:46.993Z,991.48
2018-08-22T08:15:46.925Z,991.45
2018-08-22T08:16:46.855Z,991.49
2018-08-22T08:17:46.787Z,991.47
2018-08-22T08:18:46.748Z,991.43
2018-08-22T08:19:46.647Z,991.42
2018-08-22T08:20:46.580Z,991.44
2018-08-22T08:21:46.509Z,991.42
2018-08-22T08:22:46.440Z,991.42
2018-08-22T08:23:46.371Z,991.44
2018-08-22T08:24:46.301Z,991.44
2018-08-22T08:25:46.233Z,991.40
2018-08-22T08:26:46.165Z,991.42
2018-08-22T08:27:46.095Z,991.42
2018-08-22T08:28:46.026Z,991.43
2018-08-22T08:29:45.957Z,991.43
2018-08-22T08:30:45.893Z,991.39
2018-08-22T08:31:45.823Z,991.39
2018-08-22T08:32:45.899Z,991.39
2018-08-22T08:33:45.680Z,991.37
2018-08-22T08:34:45.612Z,991.40
2018-08-22T08:35:45.565Z,991.35
2018-08-22T08:36:45.474Z,991.38
2018-08-22T08:37:45.404Z,991.38
2018-08-22T08:38:45.337Z,991.34
2018-08-22T08:39:45.266Z,991.37
2018-08-22T08:40:45.199Z,991.33
2018-08-22T08:41:45.207Z,991.37
2018-08-22T08:42:45.061Z,991.34
2018-08-22T08:43:44.993Z,991.34
2018-08-22T08:44:44.923Z,991.33
2018-08-22T08:45:44.872Z,991.29
2018-08-22T08:46:44.786Z,991.27
2018-08-22T08:47:44.717Z,991.24
2018-08-22T08:48:44.648Z,991.26
2018-08-22T08:49:44.579Z,991.20
2018-08-22T08:50:44.514Z,991.22
2018-08-22T08:51:44.444Z,991.21
2018-08-22T08:52:44.374Z,991.23
2018-08-22T08:53:44.304Z,991.23
2018-08-22T08:54:44.237Z,991.21
2018-08-22T08:55:44.200Z,991.21
2018-08-22T08:56:44.099Z,991.24
2018-08-22T08:57:44.031Z,991.23
2018-08-22T08:58:43.962Z,991.24
2018-08-22T08:59:43.915Z,991.21
2018-08-22T09:00:43.829Z,991.24
2018-08-22T09:01:43.762Z,991.20
2018-08-22T09:02:43.688Z,991.21
2018-08-22T09:03:43.643Z,991.21
2018-08-22T09:04:43.551Z,991.19
2018-08-22T09:05:43.482Z,991.19
2018-08-22T09:06:43.414Z,991.18
2018-08-22T09:07:43.349Z,991.17
2018-08-22T09:08:43.277Z,991.19
2018-08-22T09:09:43.209Z,991.17
2018-08-22T09:10:43.191Z,991.20
2018-08-22T09:11:43.071Z,991.18
2018-08-22T09:12:43.003Z,991.18
2018-08-22T09:13:42.937Z,991.20
2018-08-22T09:14:42.868Z,991.18
2018-08-22T09:15:42.826Z,991.18
2018-08-22T09:16:42.731Z,991.22
2018-08-22T09:17:42.681Z,991.20
2018-08-22T09:18:42.595Z,991.20
2018-08-22T09:19:42.526Z,991.17
2018-08-22T09:20:42.457Z,991.21
2018-08-22T09:21:42.394Z,991.17
2018-08-22T09:22:42.322Z,991.16
2018-08-22T09:23:42.255Z,991.17
2018-08-22T09:24:42.186Z,991.16
2018-08-22T09:25:42.117Z,991.17
2018-08-22T09:26:42.051Z,991.16
2018-08-22T09:27:41.981Z,991.20
2018-08-22T09:28:41.914Z,991.15
2018-08-22T09:29:41.917Z,991.13
2018-08-22T09:30:41.778Z,991.10
2018-08-22T09:31:41.709Z,991.12
2018-08-22T09:32:41.640Z,991.11
2018-08-22T09:33:41.591Z,991.07
2018-08-22T09:34:41.508Z,991.07
2018-08-22T09:35:41.448Z,991.08
2018-08-22T09:36:41.370Z,991.08
2018-08-22T09:37:41.301Z,991.11
2018-08-22T09:38:41.235Z,991.08
2018-08-22T09:39:41.202Z,991.05
2018-08-22T09:40:41.099Z,991.03
2018-08-22T09:41:41.031Z,991.03
2018-08-22T09:42:40.964Z,991.06
2018-08-22T09:43:40.897Z,991.05
2018-08-22T09:44:40.828Z,991.03
2018-08-22T09:45:40.761Z,991.02
2018-08-22T09:46:40.772Z,991.02
2018-08-22T09:47:40.655Z,991.06
2018-08-22T09:48:40.559Z,991.04
2018-08-22T09:49:40.537Z,991.04
2018-08-22T09:50:40.422Z,991.02
2018-08-22T09:51:40.356Z,991.02
2018-08-22T09:52:40.286Z,991.00
2018-08-22T09:53:40.219Z,990.99
2018-08-22T09:54:40.197Z,990.97
2018-08-22T09:55:40.083Z,990.99
2018-08-22T09:56:40.015Z,990.91
2018-08-22T09:57:39.949Z,990.94
2018-08-22T09:58:39.927Z,990.92
2018-08-22T09:59:39.814Z,990.93
2018-08-22T10:00:39.750Z,990.89
2018-08-22T10:01:39.692Z,990.91
2018-08-22T10:02:39.612Z,990.89
2018-08-22T10:03:39.544Z,990.89
2018-08-22T10:04:39.476Z,990.90
2018-08-22T10:05:39.409Z,990.87
2018-08-22T10:06:39.489Z,990.87
2018-08-22T10:07:39.274Z,990.82
2018-08-22T10:08:39.207Z,990.88
2018-08-22T10:09:39.142Z,990.84
2018-08-22T10:10:39.073Z,990.83
2018-08-22T10:11:39.005Z,990.83
2018-08-22T10:12:38.936Z,990.84
2018-08-22T10:13:38.869Z,990.84
2018-08-22T10:14:38.829Z,990.83
2018-08-22T10:15:38.736Z,990.83
2018-08-22T10:16:38.666Z,990.78
2018-08-22T10:17:38.601Z,990.77
2018-08-22T10:18:38.533Z,990.76
2018-08-22T10:19:38.485Z,990.72
2018-08-22T10:20:38.399Z,990.72
2018-08-22T10:21:38.334Z,990.73
2018-08-22T10:22:38.265Z,990.71
2018-08-22T10:23:38.198Z,990.76
2018-08-22T10:24:38.131Z,990.67
2018-08-22T10:25:38.064Z,990.72
2018-08-22T10:26:38.063Z,990.68
2018-08-22T10:27:37.931Z,990.71
2018-08-22T10:28:37.864Z,990.69
2018-08-22T10:29:37.797Z,990.68
2018-08-22T10:30:37.736Z,990.67
2018-08-22T10:31:37.662Z,990.65
2018-08-22T10:32:37.633Z,990.67
2018-08-22T10:33:37.527Z,990.65
2018-08-22T10:34:37.460Z,990.63
2018-08-22T10:35:37.396Z,990.62
2018-08-22T10:36:37.326Z,990.61
2018-08-22T10:37:37.261Z,990.61
2018-08-22T10:38:37.272Z,990.59
2018-08-22T10:39:37.196Z,990.62
2018-08-22T10:40:37.060Z,990.60
2018-08-22T10:41:36.993Z,990.58
2018-08-22T10:42:36.925Z,990.58
2018-08-22T10:43:36.859Z,990.53
2018-08-22T10:44:36.872Z,990.55
2018-08-22T10:45:36.726Z,990.55
2018-08-22T10:46:36.657Z,990.52
2018-08-22T10:47:36.596Z,990.55
2018-08-22T10:48:36.525Z,990.48
2018-08-22T10:49:36.471Z,990.50
2018-08-22T10:50:36.402Z,990.46
2018-08-22T10:51:36.332Z,990.47
2018-08-22T10:52:36.260Z,990.46
2018-08-22T10:53:36.194Z,990.44
2018-08-22T10:54:36.129Z,990.43
2018-08-22T10:55:36.061Z,990.44
2018-08-22T10:56:36.011Z,990.42
2018-08-22T10:57:35.928Z,990.41
2018-08-22T10:58:35.861Z,990.41
2018-08-22T10:59:35.794Z,990.41
2018-08-22T11:00:35.735Z,990.39
2018-08-22T11:01:35.667Z,990.47
2018-08-22T11:02:35.599Z,990.45
2018-08-22T11:03:35.530Z,990.40
2018-08-22T11:04:35.475Z,990.41
2018-08-22T11:05:35.398Z,990.48
2018-08-22T11:06:35.333Z,990.47
2018-08-22T11:07:35.268Z,990.47
2018-08-22T11:08:35.201Z,990.47
2018-08-22T11:09:35.133Z,990.45
2018-08-22T11:10:35.069Z,990.46
2018-08-22T11:11:35.004Z,990.46
2018-08-22T11:12:34.938Z,990.44
2018-08-22T11:13:34.875Z,990.47
2018-08-22T11:14:34.807Z,990.41
2018-08-22T11:15:34.764Z,990.40
2018-08-22T11:16:34.676Z,990.38
2018-08-22T11:17:34.609Z,990.37
2018-08-22T11:18:34.544Z,990.44
2018-08-22T11:19:34.478Z,990.37
2018-08-22T11:20:34.412Z,990.41
2018-08-22T11:21:34.347Z,990.39
2018-08-22T11:22:34.284Z,990.40
2018-08-22T11:23:34.217Z,990.34
2018-08-22T11:24:34.150Z,990.38
2018-08-22T11:25:34.086Z,990.45
2018-08-22T11:26:34.022Z,990.38
2018-08-22T11:27:33.955Z,990.36
2018-08-22T11:28:33.896Z,990.40
2018-08-22T11:29:33.825Z,990.31
2018-08-22T11:30:33.765Z,990.29
2018-08-22T11:31:33.696Z,990.25
2018-08-22T11:32:33.628Z,990.23
2018-08-22T11:33:33.564Z,990.27
2018-08-22T11:34:33.582Z,990.23
2018-08-22T11:35:33.444Z,990.23
2018-08-22T11:36:33.371Z,990.27
2018-08-22T11:37:33.306Z,990.28
2018-08-22T11:38:33.241Z,990.28
2018-08-22T11:39:33.177Z,990.27
2018-08-22T11:40:33.115Z,990.40
2018-08-22T11:41:33.047Z,990.44
2018-08-22T11:42:32.985Z,990.35
2018-08-22T11:43:32.922Z,990.34
2018-08-22T11:44:32.858Z,990.37
2018-08-22T11:45:32.795Z,990.29
2018-08-22T11:46:32.732Z,990.28
2018-08-22T11:47:32.671Z,990.29
2018-08-22T11:48:32.607Z,990.35
2018-08-22T11:49:32.546Z,990.35
2018-08-22T11:50:32.487Z,990.28
2018-08-22T11:51:32.427Z,990.23
2018-08-22T11:52:32.365Z,990.28
2018-08-22T11:53:32.304Z,990.26
2018-08-22T11:54:32.245Z,990.27
2018-08-22T11:55:32.186Z,990.30
2018-08-22T11:56:32.128Z,990.30
2018-08-22T11:57:32.070Z,990.30
2018-08-22T11:58:32.011Z,990.29
2018-08-22T11:59:31.956Z,990.29
2018-08-22T12:00:31.895Z,990.36
2018-08-22T12:01:31.838Z,990.44
2018-08-22T12:02:31.781Z,990.45
2018-08-22T12:03:31.724Z,990.43
2018-08-22T12:04:31.666Z,990.46
2018-08-22T12:05:31.609Z,990.55
2018-08-22T12:06:31.552Z,990.50
2018-08-22T12:07:31.495Z,990.45
2018-08-22T12:08:31.439Z,990.42
2018-08-22T12:09:31.384Z,990.52
2018-08-22T12:10:31.340Z,990.58
2018-08-22T12:11:31.271Z,990.54
2018-08-22T12:12:31.215Z,990.47
2018-08-22T12:13:31.159Z,990.50
2018-08-22T12:14:31.103Z,990.56
2018-08-22T12:15:31.047Z,990.57
2018-08-22T12:16:30.992Z,990.60
2018-08-22T12:17:30.936Z,990.70
2018-08-22T12:18:30.880Z,990.73
2018-08-22T12:19:30.825Z,990.61
2018-08-22T12:20:30.770Z,990.67
2018-08-22T12:21:30.714Z,990.64
2018-08-22T12:22:30.659Z,990.61
2018-08-22T12:23:30.606Z,990.62
2018-08-22T12:24:30.548Z,990.76
2018-08-22T12:25:30.494Z,990.82
2018-08-22T12:26:30.438Z,990.83
2018-08-22T12:27:30.385Z,990.88